Time;durP1;ratioP1;P1;durP2;ratioP2;P2;SDS_P1;SDS_P2;PMS_P1;PMS_P2;Temp;Humidity;BMP_temperature;BMP_pressure;BME280_temperature;BME280_humidity;BME280_pressure;Samples;Min_cycle;Max_cycle;Signal;HPM_P1;HPM_P2
2021/12/17 00:00:44;;;;;;;26.45;5.90;;;;;;;;;;4995302;28;20026;-29
2021/12/17 00:03:16;;;;;;;28.00;5.32;;;;;;;;;;4995539;28;20038;-30
2021/12/17 00:06:04;;;;;;;36.20;7.63;;;;;;;;;;4996079;28;20120;-30
2021/12/17 00:08:30;;;;;;;20.63;4.47;;;;;;;;;;4995483;28;20038;-30
2021/12/17 00:10:56;;;;;;;28.98;5.47;;;;;;;;;;4995735;28;20034;-30
2021/12/17 00:13:22;;;;;;;41.78;7.50;;;;;;;;;;4995839;28;20342;-30
2021/12/17 00:15:48;;;;;;;34.47;5.63;;;;;;;;;;4995912;28;20105;-30
2021/12/17 00:18:26;;;;;;;26.65;5.43;;;;;;;;;;4995509;28;20084;-30
2021/12/17 00:40:15;;;;;;;27.00;5.30;;;;;;;;;;4995551;28;20425;-29
2021/12/17 00:53:08;;;;;;;39.28;7.22;;;;;;;;;;4994969;28;20041;-28
2021/12/17 00:55:34;;;;;;;29.92;5.20;;;;;;;;;;4995075;28;20030;-29
2021/12/17 00:58:00;;;;;;;25.83;5.38;;;;;;;;;;4995277;28;20361;-28
2021/12/17 01:00:27;;;;;;;33.10;5.60;;;;;;;;;;4995267;28;20441;-31
2021/12/17 01:02:53;;;;;;;22.27;5.97;;;;;;;;;;4994968;28;20030;-30
2021/12/17 01:05:21;;;;;;;26.33;4.85;;;;;;;;;;4995536;28;20069;-33
2021/12/17 01:07:48;;;;;;;31.08;4.25;;;;;;;;;;4994890;28;20146;-31
2021/12/17 01:10:19;;;;;;;28.90;8.68;;;;;;;;;;4994923;28;20030;-32
2021/12/17 01:12:45;;;;;;;21.20;4.63;;;;;;;;;;4993937;28;20026;-30
2021/12/17 01:15:14;;;;;;;21.98;4.07;;;;;;;;;;4994877;28;20069;-33
2021/12/17 01:17:43;;;;;;;31.58;4.78;;;;;;;;;;4994794;28;20326;-32
2021/12/17 01:35:20;;;;;;;19.00;4.75;;;;;;;;;;4964688;28;20065;-33
2021/12/17 01:36:38;;;;;;;17.63;4.78;;;;;;;;;;4995244;28;20111;-34
2021/12/17 01:44:26;;;;;;;13.32;4.03;;;;;;;;;;4994960;28;20042;-30
2021/12/17 01:46:53;;;;;;;25.88;4.82;;;;;;;;;;4994572;28;20094;-33
2021/12/17 01:49:30;;;;;;;22.85;5.22;;;;;;;;;;4994773;28;20036;-31
2021/12/17 02:00:06;;;;;;;18.17;3.67;;;;;;;;;;4994739;28;20442;-31
2021/12/17 02:02:40;;;;;;;20.20;4.68;;;;;;;;;;4994612;28;20102;-33
2021/12/17 02:05:06;;;;;;;21.45;5.75;;;;;;;;;;4994377;28;20105;-31
2021/12/17 02:07:32;;;;;;;24.63;3.15;;;;;;;;;;4994879;28;20430;-32
2021/12/17 02:20:45;;;;;;;24.35;4.63;;;;;;;;;;4994618;28;20108;-32
2021/12/17 02:33:48;;;;;;;20.38;3.65;;;;;;;;;;4997619;28;20057;-32
2021/12/17 02:36:18;;;;;;;10.02;3.20;;;;;;;;;;4997563;28;20096;-34
2021/12/17 02:38:45;;;;;;;24.35;4.53;;;;;;;;;;4997819;28;20034;-32
2021/12/17 02:46:40;;;;;;;17.05;4.15;;;;;;;;;;4998001;28;20117;-32
2021/12/17 02:49:07;;;;;;;18.08;4.28;;;;;;;;;;4997641;28;20022;-30
2021/12/17 02:51:34;;;;;;;15.52;3.83;;;;;;;;;;4997234;28;20065;-32
2021/12/17 02:54:00;;;;;;;30.15;3.90;;;;;;;;;;4997302;28;20074;-31
2021/12/17 02:56:27;;;;;;;11.07;3.70;;;;;;;;;;4997221;28;20031;-33
2021/12/17 02:58:54;;;;;;;19.33;3.83;;;;;;;;;;4979968;28;20038;-31
2021/12/17 03:01:21;;;;;;;15.27;3.33;;;;;;;;;;4997363;28;20113;-33
2021/12/17 03:03:50;;;;;;;17.58;3.90;;;;;;;;;;4996779;28;20054;-33
2021/12/17 03:06:17;;;;;;;15.27;4.05;;;;;;;;;;4997084;28;20026;-31
2021/12/17 03:08:46;;;;;;;21.35;4.50;;;;;;;;;;4996971;28;20498;-31
2021/12/17 03:11:13;;;;;;;16.98;3.42;;;;;;;;;;4996965;28;20018;-31
2021/12/17 03:13:39;;;;;;;15.63;3.47;;;;;;;;;;4996846;28;20450;-33
2021/12/17 03:23:46;;;;;;;19.83;5.82;;;;;;;;;;4996717;28;20381;-32
2021/12/17 03:26:13;;;;;;;20.42;4.15;;;;;;;;;;4996674;28;20026;-33
2021/12/17 03:28:42;;;;;;;18.58;3.80;;;;;;;;;;4996874;28;20026;-31
2021/12/17 03:31:09;;;;;;;19.70;5.18;;;;;;;;;;4979442;28;20030;-32
2021/12/17 03:33:36;;;;;;;15.02;4.00;;;;;;;;;;4996435;28;20037;-33
2021/12/17 03:36:02;;;;;;;16.80;4.40;;;;;;;;;;4995518;28;20036;-31
2021/12/17 03:38:29;;;;;;;18.35;3.95;;;;;;;;;;4996430;28;20034;-30
2021/12/17 03:41:10;;;;;;;23.38;5.82;;;;;;;;;;4996662;28;20045;-31
2021/12/17 03:43:37;;;;;;;22.60;3.33;;;;;;;;;;4996194;28;20109;-34
2021/12/17 03:46:04;;;;;;;9.40;3.42;;;;;;;;;;4996599;28;20057;-32
2021/12/17 03:48:31;;;;;;;18.30;3.15;;;;;;;;;;4996247;28;20030;-31
2021/12/17 03:50:57;;;;;;;16.85;4.53;;;;;;;;;;4996191;28;20023;-33
2021/12/17 03:53:24;;;;;;;15.32;4.22;;;;;;;;;;4978887;28;20048;-31
2021/12/17 03:55:50;;;;;;;11.45;3.15;;;;;;;;;;4996430;28;20207;-32
2021/12/17 03:58:19;;;;;;;22.38;3.30;;;;;;;;;;4996351;28;20058;-31
2021/12/17 04:00:46;;;;;;;14.50;5.32;;;;;;;;;;4995942;28;20429;-32
2021/12/17 04:03:12;;;;;;;17.77;4.35;;;;;;;;;;4995741;28;20257;-30
2021/12/17 04:05:38;;;;;;;9.27;4.22;;;;;;;;;;4996177;28;20030;-31
2021/12/17 04:08:05;;;;;;;12.68;3.22;;;;;;;;;;4996106;28;20414;-32
2021/12/17 04:10:40;;;;;;;16.30;3.60;;;;;;;;;;4996124;28;20483;-35
2021/12/17 04:16:05;;;;;;;17.73;3.85;;;;;;;;;;4982964;28;20117;-31
2021/12/17 04:18:32;;;;;;;14.10;3.53;;;;;;;;;;4995720;28;20034;-31
2021/12/17 04:20:59;;;;;;;12.27;5.45;;;;;;;;;;4995889;28;20034;-31
2021/12/17 04:23:26;;;;;;;15.05;3.42;;;;;;;;;;4995458;28;20326;-34
2021/12/17 04:25:52;;;;;;;16.92;3.80;;;;;;;;;;4995580;28;20101;-32
2021/12/17 04:28:19;;;;;;;19.08;3.67;;;;;;;;;;4978354;28;20072;-31
2021/12/17 04:30:45;;;;;;;11.40;2.97;;;;;;;;;;4995779;28;20046;-32
2021/12/17 04:33:13;;;;;;;14.15;3.28;;;;;;;;;;4995404;28;20041;-31
2021/12/17 04:35:39;;;;;;;13.98;4.30;;;;;;;;;;4995329;28;20044;-32
2021/12/17 04:38:07;;;;;;;7.15;3.25;;;;;;;;;;4996053;28;20034;-31
2021/12/17 04:40:36;;;;;;;18.80;3.67;;;;;;;;;;4995544;28;20038;-33
2021/12/17 04:45:43;;;;;;;12.23;3.20;;;;;;;;;;4995238;28;20040;-34
2021/12/17 04:59:12;;;;;;;15.30;3.88;;;;;;;;;;4995256;28;20064;-32
2021/12/17 05:01:38;;;;;;;9.30;3.45;;;;;;;;;;4994979;28;20100;-32
2021/12/17 05:04:04;;;;;;;13.27;3.42;;;;;;;;;;4994619;28;20121;-31
2021/12/17 05:06:31;;;;;;;11.77;3.60;;;;;;;;;;4995331;28;20026;-31
2021/12/17 05:09:06;;;;;;;11.85;3.78;;;;;;;;;;4995064;28;20514;-34
2021/12/17 05:19:52;;;;;;;30.00;4.38;;;;;;;;;;4995039;28;20468;-34
2021/12/17 05:22:19;;;;;;;24.15;3.67;;;;;;;;;;4995000;28;20031;-31
2021/12/17 05:24:46;;;;;;;35.60;5.28;;;;;;;;;;4994738;28;20113;-33
2021/12/17 05:27:12;;;;;;;15.30;3.55;;;;;;;;;;4978155;28;20042;-31
2021/12/17 05:29:38;;;;;;;11.98;3.30;;;;;;;;;;4994995;28;20050;-31
2021/12/17 05:32:05;;;;;;;12.75;3.33;;;;;;;;;;4994584;28;20023;-34
2021/12/17 05:34:31;;;;;;;12.68;3.30;;;;;;;;;;4994655;28;20027;-35
2021/12/17 05:36:57;;;;;;;18.45;5.20;;;;;;;;;;4994651;28;20104;-31
2021/12/17 05:39:23;;;;;;;12.00;3.80;;;;;;;;;;4994460;28;20057;-31
2021/12/17 05:41:50;;;;;;;16.48;3.92;;;;;;;;;;4994517;28;20030;-31
2021/12/17 05:44:18;;;;;;;11.35;3.15;;;;;;;;;;4994710;28;20412;-34
2021/12/17 05:46:50;;;;;;;16.52;3.88;;;;;;;;;;4994337;28;20109;-31
2021/12/17 05:49:24;;;;;;;23.45;3.90;;;;;;;;;;4994730;28;20026;-33
2021/12/17 05:51:50;;;;;;;14.90;3.90;;;;;;;;;;4977046;28;20034;-30
2021/12/17 05:54:17;;;;;;;18.13;3.83;;;;;;;;;;4994815;28;20041;-31
2021/12/17 05:56:43;;;;;;;20.88;3.55;;;;;;;;;;4994772;28;20030;-32
2021/12/17 05:59:10;;;;;;;12.90;5.00;;;;;;;;;;4996634;28;20030;-31
2021/12/17 06:01:36;;;;;;;19.90;4.70;;;;;;;;;;4998145;28;20457;-31
2021/12/17 06:04:03;;;;;;;13.50;2.92;;;;;;;;;;4997757;28;20450;-32
2021/12/17 06:06:34;;;;;;;10.93;3.20;;;;;;;;;;4997765;28;20026;-32
2021/12/17 06:09:04;;;;;;;13.07;3.53;;;;;;;;;;4997970;28;20031;-32
2021/12/17 06:11:30;;;;;;;17.27;4.07;;;;;;;;;;4998258;28;20402;-31
2021/12/17 06:13:56;;;;;;;14.30;4.03;;;;;;;;;;4997854;28;20038;-32
2021/12/17 06:16:23;;;;;;;16.95;4.20;;;;;;;;;;4998082;28;20041;-31
2021/12/17 06:18:49;;;;;;;13.65;4.38;;;;;;;;;;4998096;28;20022;-33
2021/12/17 06:21:17;;;;;;;24.50;3.72;;;;;;;;;;4997915;28;20442;-34
2021/12/17 06:23:43;;;;;;;24.88;4.20;;;;;;;;;;4997539;28;20449;-33
2021/12/17 06:26:09;;;;;;;25.02;3.60;;;;;;;;;;4997802;28;20050;-30
2021/12/17 06:28:35;;;;;;;18.92;4.32;;;;;;;;;;4998177;28;20441;-30
2021/12/17 06:31:02;;;;;;;13.20;4.40;;;;;;;;;;4997630;28;20437;-31
2021/12/17 06:33:28;;;;;;;12.98;3.65;;;;;;;;;;4997716;28;20057;-30
2021/12/17 06:35:54;;;;;;;23.42;3.08;;;;;;;;;;4997728;28;20026;-30
2021/12/17 06:38:20;;;;;;;16.80;4.05;;;;;;;;;;4997654;28;20428;-31
2021/12/17 06:40:48;;;;;;;13.60;3.15;;;;;;;;;;4997506;28;20030;-32
2021/12/17 06:43:16;;;;;;;12.63;3.28;;;;;;;;;;4997078;28;20040;-31
2021/12/17 06:46:04;;;;;;;15.25;3.25;;;;;;;;;;4997546;28;20386;-32
2021/12/17 06:48:32;;;;;;;18.98;4.63;;;;;;;;;;4997663;28;20046;-34
2021/12/17 07:17:51;;;;;;;14.40;4.03;;;;;;;;;;4997049;28;20045;-35
2021/12/17 07:20:57;;;;;;;18.90;3.65;;;;;;;;;;4997159;28;20106;-32
2021/12/17 07:23:21;;;;;;;19.13;3.83;;;;;;;;;;4996497;28;20065;-32
2021/12/17 07:32:17;;;;;;;34.58;4.10;;;;;;;;;;4996728;28;20473;-32
2021/12/17 07:34:09;;;;;;;17.08;3.05;;;;;;;;;;4994159;28;20030;-31
2021/12/17 07:36:43;;;;;;;19.15;4.18;;;;;;;;;;4996616;28;20092;-32
2021/12/17 07:39:09;;;;;;;17.15;3.58;;;;;;;;;;4996643;28;20022;-32
2021/12/17 07:41:36;;;;;;;14.95;4.63;;;;;;;;;;4996402;28;20096;-33
2021/12/17 07:44:02;;;;;;;16.73;3.58;;;;;;;;;;4996287;28;20085;-32
2021/12/17 07:46:30;;;;;;;11.00;3.78;;;;;;;;;;4997122;28;20042;-32
2021/12/17 07:48:57;;;;;;;25.27;4.82;;;;;;;;;;4996261;28;20101;-34
2021/12/17 07:51:24;;;;;;;13.05;3.72;;;;;;;;;;4996412;28;20022;-33
2021/12/17 07:53:51;;;;;;;19.58;4.38;;;;;;;;;;4995878;28;20096;-32
2021/12/17 07:56:18;;;;;;;29.30;3.65;;;;;;;;;;4996426;28;20432;-32
2021/12/17 07:58:45;;;;;;;14.93;4.50;;;;;;;;;;4995988;28;20034;-33
2021/12/17 08:01:12;;;;;;;20.98;4.43;;;;;;;;;;4996203;28;20431;-33
2021/12/17 08:03:42;;;;;;;22.30;4.32;;;;;;;;;;4995592;28;20038;-32
2021/12/17 08:06:08;;;;;;;48.50;5.55;;;;;;;;;;4996224;28;20036;-32
2021/12/17 08:08:35;;;;;;;18.38;3.40;;;;;;;;;;4995679;28;20081;-32
2021/12/17 08:11:01;;;;;;;20.25;3.58;;;;;;;;;;4996060;28;20027;-32
2021/12/17 08:13:31;;;;;;;12.27;4.03;;;;;;;;;;4996011;28;20066;-33
2021/12/17 08:18:45;;;;;;;20.95;6.50;;;;;;;;;;4995662;28;20034;-32
2021/12/17 08:32:25;;;;;;;29.60;5.45;;;;;;;;;;4995218;28;20042;-31
2021/12/17 08:34:51;;;;;;;33.40;4.78;;;;;;;;;;4995960;28;20346;-32
2021/12/17 08:37:17;;;;;;;34.10;4.65;;;;;;;;;;4995808;28;20038;-34
2021/12/17 08:39:44;;;;;;;32.33;4.63;;;;;;;;;;4995235;28;20038;-31
2021/12/17 08:42:10;;;;;;;29.70;4.65;;;;;;;;;;4995271;28;20026;-32
2021/12/17 08:44:36;;;;;;;22.15;3.63;;;;;;;;;;4995154;28;20026;-32
2021/12/17 08:47:03;;;;;;;23.33;3.72;;;;;;;;;;4995782;28;20042;-31
2021/12/17 08:49:29;;;;;;;26.35;3.40;;;;;;;;;;4977803;28;20107;-31
2021/12/17 08:51:56;;;;;;;22.75;4.45;;;;;;;;;;4995097;28;20381;-32
2021/12/17 08:54:22;;;;;;;16.83;3.15;;;;;;;;;;4995266;28;20109;-31
2021/12/17 08:56:49;;;;;;;41.22;5.07;;;;;;;;;;4977879;28;20483;-31
2021/12/17 08:59:17;;;;;;;24.35;5.07;;;;;;;;;;4994912;28;20038;-33
2021/12/17 09:01:44;;;;;;;20.85;6.28;;;;;;;;;;4995126;28;20038;-32
2021/12/17 09:04:10;;;;;;;23.05;4.30;;;;;;;;;;4985086;28;20521;-31
2021/12/17 09:06:37;;;;;;;39.60;6.30;;;;;;;;;;4994943;28;20030;-31
2021/12/17 09:09:04;;;;;;;24.40;4.95;;;;;;;;;;4995029;28;20022;-32
2021/12/17 09:11:31;;;;;;;19.25;4.38;;;;;;;;;;4994970;28;20073;-31
2021/12/17 09:13:59;;;;;;;38.00;4.03;;;;;;;;;;4994491;28;20156;-33
2021/12/17 09:16:25;;;;;;;19.38;4.57;;;;;;;;;;4994899;28;20034;-32
2021/12/17 09:18:53;;;;;;;23.45;5.93;;;;;;;;;;4994765;28;20369;-31
2021/12/17 09:21:20;;;;;;;12.95;3.65;;;;;;;;;;4993585;28;20030;-34
2021/12/17 09:23:47;;;;;;;18.45;4.45;;;;;;;;;;4994392;28;20075;-31
2021/12/17 09:26:14;;;;;;;22.27;5.30;;;;;;;;;;4994775;28;20034;-31
2021/12/17 09:28:40;;;;;;;27.48;5.57;;;;;;;;;;4994547;28;20350;-31
2021/12/17 09:31:11;;;;;;;26.00;3.92;;;;;;;;;;4994582;28;20080;-34
2021/12/17 09:33:37;;;;;;;20.33;3.55;;;;;;;;;;4995771;28;20113;-33
2021/12/17 09:36:05;;;;;;;31.10;4.30;;;;;;;;;;4998676;28;20052;-31
2021/12/17 09:38:31;;;;;;;30.08;5.18;;;;;;;;;;4998237;28;20162;-32
2021/12/17 09:40:58;;;;;;;15.90;3.47;;;;;;;;;;4998999;28;20026;-32
2021/12/17 09:43:24;;;;;;;35.83;4.80;;;;;;;;;;4998232;28;20105;-31
2021/12/17 09:45:51;;;;;;;24.58;4.25;;;;;;;;;;4998357;28;20026;-31
2021/12/17 09:48:19;;;;;;;27.92;3.78;;;;;;;;;;4997330;28;20462;-34
2021/12/17 09:50:46;;;;;;;28.80;4.57;;;;;;;;;;4997330;28;20369;-31
2021/12/17 09:53:12;;;;;;;24.05;5.47;;;;;;;;;;4997042;28;20129;-31
2021/12/17 09:55:39;;;;;;;25.65;4.40;;;;;;;;;;4998464;28;20030;-31
2021/12/17 09:58:05;;;;;;;27.83;5.35;;;;;;;;;;4998453;28;20057;-32
2021/12/17 10:00:31;;;;;;;29.40;4.75;;;;;;;;;;4998136;28;20377;-31
2021/12/17 10:02:58;;;;;;;35.63;3.67;;;;;;;;;;4997820;28;20023;-35
2021/12/17 10:05:26;;;;;;;25.70;5.30;;;;;;;;;;4998220;28;20030;-33
2021/12/17 10:07:57;;;;;;;26.42;4.22;;;;;;;;;;4980926;28;20085;-32
2021/12/17 10:10:32;;;;;;;26.65;4.30;;;;;;;;;;4998234;28;20030;-31
2021/12/17 10:13:08;;;;;;;38.88;6.53;;;;;;;;;;4980658;28;20037;-32
2021/12/17 10:15:36;;;;;;;30.80;4.40;;;;;;;;;;4998121;28;20033;-30
2021/12/17 10:18:03;;;;;;;29.80;4.15;;;;;;;;;;4997807;28;20053;-31
2021/12/17 10:20:30;;;;;;;36.15;4.60;;;;;;;;;;4997492;28;20022;-30
2021/12/17 10:23:00;;;;;;;34.25;6.63;;;;;;;;;;4980012;28;20053;-31
2021/12/17 10:25:27;;;;;;;36.00;5.28;;;;;;;;;;4997310;28;20092;-32
2021/12/17 10:28:04;;;;;;;24.58;4.45;;;;;;;;;;4997566;28;20030;-31
2021/12/17 10:30:33;;;;;;;32.33;5.05;;;;;;;;;;4997666;28;20180;-31
2021/12/17 10:33:00;;;;;;;27.17;4.00;;;;;;;;;;4997437;28;20053;-31
2021/12/17 10:35:31;;;;;;;24.10;4.20;;;;;;;;;;4997488;28;20030;-31
2021/12/17 10:38:00;;;;;;;26.80;5.82;;;;;;;;;;4997179;28;20058;-32
2021/12/17 10:40:39;;;;;;;20.30;3.80;;;;;;;;;;4997497;28;20073;-34
2021/12/17 10:43:20;;;;;;;17.08;3.97;;;;;;;;;;4997184;28;20018;-32
2021/12/17 10:46:07;;;;;;;39.60;5.65;;;;;;;;;;4997237;28;20365;-30
2021/12/17 10:51:13;;;;;;;24.80;4.22;;;;;;;;;;4997072;28;20031;-31
2021/12/17 10:53:44;;;;;;;32.17;6.13;;;;;;;;;;4997022;28;20366;-30
2021/12/17 10:56:10;;;;;;;;;;;;;;;;;;4997678;28;20035;-31
2021/12/17 10:58:36;;;;;;;24.88;3.60;;;;;;;;;;4997137;28;19997;-32
2021/12/17 11:01:06;;;;;;;28.70;4.18;;;;;;;;;;4997118;28;20128;-31
2021/12/17 11:03:42;;;;;;;34.80;6.53;;;;;;;;;;4996968;28;20046;-31
2021/12/17 11:06:09;;;;;;;39.92;4.38;;;;;;;;;;4997959;28;20096;-34
2021/12/17 11:08:37;;;;;;;35.10;6.32;;;;;;;;;;4997217;28;20314;-31
2021/12/17 11:11:12;;;;;;;34.05;4.75;;;;;;;;;;4996696;28;20039;-34
2021/12/17 11:14:00;;;;;;;30.55;5.30;;;;;;;;;;4996522;28;20413;-33
2021/12/17 11:16:27;;;;;;;34.15;5.15;;;;;;;;;;4996660;28;20069;-33
2021/12/17 11:18:54;;;;;;;36.15;5.07;;;;;;;;;;4997109;28;20052;-31
2021/12/17 11:21:21;;;;;;;42.17;4.18;;;;;;;;;;4996830;28;20169;-31
2021/12/17 11:24:01;;;;;;;33.85;6.45;;;;;;;;;;4996803;28;20409;-32
2021/12/17 11:26:51;;;;;;;36.05;6.35;;;;;;;;;;4979137;28;20088;-30
2021/12/17 11:29:26;;;;;;;41.72;6.07;;;;;;;;;;4995832;28;20030;-31
2021/12/17 11:31:52;;;;;;;34.22;4.65;;;;;;;;;;4996397;28;20038;-32
2021/12/17 11:34:19;;;;;;;34.92;4.25;;;;;;;;;;4996200;28;20042;-31
2021/12/17 11:36:46;;;;;;;34.83;4.63;;;;;;;;;;4996560;28;20030;-31
2021/12/17 11:39:23;;;;;;;47.55;5.78;;;;;;;;;;4996622;28;20041;-31
2021/12/17 11:42:14;;;;;;;34.20;4.57;;;;;;;;;;4996670;28;20117;-32
2021/12/17 11:44:42;;;;;;;32.42;5.50;;;;;;;;;;4996228;28;20045;-31
2021/12/17 11:47:10;;;;;;;31.67;6.22;;;;;;;;;;4996206;28;20054;-32
2021/12/17 11:49:38;;;;;;;19.85;3.50;;;;;;;;;;4996517;28;20455;-34
2021/12/17 11:52:05;;;;;;;28.05;6.05;;;;;;;;;;4996119;28;20038;-33
2021/12/17 11:54:32;;;;;;;27.05;5.35;;;;;;;;;;4996241;28;20408;-34
2021/12/17 11:57:06;;;;;;;32.55;4.60;;;;;;;;;;4995393;28;20038;-33
2021/12/17 11:59:34;;;;;;;32.78;4.35;;;;;;;;;;4995833;28;20030;-33
2021/12/17 12:02:03;;;;;;;47.90;8.20;;;;;;;;;;4995756;28;20030;-33
2021/12/17 12:04:35;;;;;;;35.78;5.00;;;;;;;;;;4995671;28;20049;-33
2021/12/17 12:07:02;;;;;;;38.88;5.50;;;;;;;;;;4995794;28;20026;-32
2021/12/17 12:09:47;;;;;;;39.95;4.82;;;;;;;;;;4978422;28;20454;-33
2021/12/17 12:12:13;;;;;;;42.30;6.68;;;;;;;;;;4995480;28;20492;-32
2021/12/17 12:14:40;;;;;;;33.20;5.57;;;;;;;;;;4995782;28;20041;-32
2021/12/17 12:17:06;;;;;;;34.80;5.10;;;;;;;;;;4995949;28;20137;-32
2021/12/17 12:19:48;;;;;;;29.88;4.88;;;;;;;;;;4978391;28;20030;-32
2021/12/17 12:22:15;;;;;;;38.67;4.05;;;;;;;;;;4995446;28;20080;-32
2021/12/17 12:24:41;;;;;;;26.80;4.50;;;;;;;;;;4995640;28;20026;-34
2021/12/17 12:27:27;;;;;;;30.67;3.85;;;;;;;;;;4995911;28;20058;-32
2021/12/17 12:29:57;;;;;;;24.25;4.20;;;;;;;;;;4995594;28;20030;-34
2021/12/17 12:32:24;;;;;;;34.85;4.38;;;;;;;;;;4996164;28;20361;-32
2021/12/17 12:34:53;;;;;;;40.55;5.80;;;;;;;;;;4994987;28;20026;-32
2021/12/17 12:37:24;;;;;;;41.33;6.13;;;;;;;;;;4995153;28;20061;-32
2021/12/17 12:39:54;;;;;;;45.70;6.28;;;;;;;;;;4995346;28;20026;-35
2021/12/17 12:42:21;;;;;;;31.58;5.93;;;;;;;;;;4994748;28;20092;-32
2021/12/17 12:44:48;;;;;;;43.20;6.35;;;;;;;;;;4995469;28;20390;-31
2021/12/17 12:47:26;;;;;;;51.83;7.45;;;;;;;;;;4977630;28;20381;-31
2021/12/17 12:49:54;;;;;;;28.50;5.45;;;;;;;;;;4977595;28;20120;-32
2021/12/17 12:52:28;;;;;;;50.00;6.15;;;;;;;;;;4994881;28;20393;-32
2021/12/17 12:54:56;;;;;;;40.88;4.95;;;;;;;;;;4994642;28;20496;-31
2021/12/17 12:57:25;;;;;;;46.10;6.15;;;;;;;;;;4994665;28;20019;-33
2021/12/17 12:59:52;;;;;;;36.40;5.50;;;;;;;;;;4994621;28;20050;-33
2021/12/17 13:02:19;;;;;;;39.15;4.85;;;;;;;;;;4994729;28;20026;-33
2021/12/17 13:04:46;;;;;;;44.75;5.53;;;;;;;;;;4994424;28;20047;-34
2021/12/17 13:07:15;;;;;;;30.13;5.65;;;;;;;;;;4994562;28;20027;-33
2021/12/17 13:09:43;;;;;;;34.75;5.50;;;;;;;;;;4994309;28;20098;-32
2021/12/17 13:12:10;;;;;;;41.33;7.30;;;;;;;;;;4994395;28;20030;-34
2021/12/17 13:14:46;;;;;;;30.77;5.28;;;;;;;;;;4994348;28;20026;-33
2021/12/17 13:17:41;;;;;;;32.55;4.43;;;;;;;;;;4977761;28;20117;-32
2021/12/17 13:23:00;;;;;;;37.58;5.80;;;;;;;;;;4994502;28;20381;-33
2021/12/17 13:25:27;;;;;;;50.85;5.10;;;;;;;;;;4994475;28;20026;-35
2021/12/17 13:27:55;;;;;;;39.30;5.25;;;;;;;;;;4994827;28;20105;-34
2021/12/17 13:30:28;;;;;;;36.58;7.68;;;;;;;;;;4994486;28;20331;-33
2021/12/17 13:32:54;;;;;;;37.95;5.07;;;;;;;;;;4994662;28;20161;-32
2021/12/17 13:35:26;;;;;;;29.15;5.07;;;;;;;;;;4994294;28;20045;-32
2021/12/17 13:37:56;;;;;;;38.60;5.28;;;;;;;;;;4994526;28;20030;-34
2021/12/17 13:40:25;;;;;;;34.20;5.20;;;;;;;;;;4994752;28;20335;-32
2021/12/17 13:42:52;;;;;;;44.25;5.60;;;;;;;;;;4994058;28;20121;-32
2021/12/17 13:45:23;;;;;;;43.03;5.75;;;;;;;;;;4994484;28;20023;-32
2021/12/17 13:47:53;;;;;;;30.52;4.10;;;;;;;;;;4994521;28;20026;-32
2021/12/17 13:50:21;;;;;;;42.43;7.27;;;;;;;;;;4994421;28;20030;-32
2021/12/17 13:52:55;;;;;;;33.80;5.72;;;;;;;;;;4995005;28;20100;-31
2021/12/17 13:55:27;;;;;;;42.65;5.00;;;;;;;;;;4977643;28;20072;-34
2021/12/17 13:57:54;;;;;;;43.58;4.50;;;;;;;;;;4994589;28;20097;-32
2021/12/17 14:00:23;;;;;;;37.50;5.40;;;;;;;;;;4994604;28;20038;-31
2021/12/17 14:02:50;;;;;;;39.70;7.28;;;;;;;;;;4994375;28;20081;-31
2021/12/17 14:05:24;;;;;;;36.38;6.38;;;;;;;;;;4994547;28;20450;-33
2021/12/17 14:07:52;;;;;;;38.05;4.80;;;;;;;;;;4994806;28;20073;-35
2021/12/17 14:10:20;;;;;;;49.83;7.20;;;;;;;;;;4977298;28;20037;-31
2021/12/17 14:12:46;;;;;;;53.67;6.88;;;;;;;;;;4994505;28;20030;-32
2021/12/17 14:15:23;;;;;;;44.10;5.68;;;;;;;;;;4995241;28;20058;-31
2021/12/17 14:17:50;;;;;;;39.50;3.78;;;;;;;;;;4994613;28;20054;-34
2021/12/17 14:20:24;;;;;;;48.63;6.57;;;;;;;;;;4996498;28;20038;-31
2021/12/17 14:22:52;;;;;;;21.83;3.92;;;;;;;;;;4998102;28;20033;-32
2021/12/17 14:25:29;;;;;;;32.33;5.60;;;;;;;;;;4998155;28;20030;-34
2021/12/17 14:27:57;;;;;;;36.30;4.28;;;;;;;;;;4997793;28;20033;-32
2021/12/17 14:30:28;;;;;;;39.58;5.32;;;;;;;;;;4997610;28;20033;-31
2021/12/17 14:32:55;;;;;;;38.58;5.13;;;;;;;;;;4997801;28;20096;-32
2021/12/17 14:35:41;;;;;;;48.78;5.70;;;;;;;;;;4997528;28;20034;-34
2021/12/17 14:38:07;;;;;;;45.70;6.95;;;;;;;;;;4997500;28;20034;-32
2021/12/17 14:40:43;;;;;;;32.30;5.13;;;;;;;;;;4980396;28;20042;-33
2021/12/17 14:43:30;;;;;;;30.20;4.82;;;;;;;;;;4997401;28;20034;-33
2021/12/17 14:46:14;;;;;;;54.50;5.63;;;;;;;;;;4997514;28;20472;-32
2021/12/17 15:04:48;;;;;;;31.60;4.82;;;;;;;;;;4996965;28;20054;-32
2021/12/17 15:07:15;;;;;;;25.60;6.28;;;;;;;;;;4997071;28;20350;-32
2021/12/17 15:09:44;;;;;;;31.92;5.35;;;;;;;;;;4997503;28;20040;-31
2021/12/17 15:12:37;;;;;;;27.60;4.25;;;;;;;;;;4997153;28;20437;-34
2021/12/17 15:15:20;;;;;;;31.05;4.63;;;;;;;;;;4996406;28;20084;-33
2021/12/17 15:17:47;;;;;;;30.98;4.18;;;;;;;;;;4996968;28;20335;-32
2021/12/17 15:20:15;;;;;;;30.13;4.05;;;;;;;;;;4997028;28;20046;-33
2021/12/17 15:22:41;;;;;;;39.45;4.78;;;;;;;;;;4996719;28;20026;-33
2021/12/17 15:25:08;;;;;;;35.33;5.20;;;;;;;;;;4996725;28;20105;-31
2021/12/17 15:27:35;;;;;;;25.27;4.85;;;;;;;;;;4979560;28;20030;-30
2021/12/17 15:30:06;;;;;;;39.97;8.25;;;;;;;;;;4996339;28;20030;-30
2021/12/17 15:32:33;;;;;;;35.88;5.20;;;;;;;;;;4995912;28;20027;-32
2021/12/17 15:34:59;;;;;;;36.67;4.82;;;;;;;;;;4996667;28;20018;-36
2021/12/17 15:37:26;;;;;;;31.23;5.15;;;;;;;;;;4996428;28;20081;-32
2021/12/17 15:39:52;;;;;;;35.10;4.20;;;;;;;;;;4996524;28;20041;-35
2021/12/17 15:42:19;;;;;;;30.15;6.22;;;;;;;;;;4996519;28;20033;-31
2021/12/17 15:44:45;;;;;;;37.03;4.75;;;;;;;;;;4996394;28;20070;-32
2021/12/17 15:47:11;;;;;;;37.70;5.18;;;;;;;;;;4996563;28;20450;-31
2021/12/17 15:49:37;;;;;;;35.10;4.50;;;;;;;;;;4996369;28;20057;-31
2021/12/17 15:52:05;;;;;;;30.60;4.78;;;;;;;;;;4996232;28;20018;-32
2021/12/17 15:54:32;;;;;;;27.77;4.50;;;;;;;;;;4996573;28;20033;-30
2021/12/17 15:56:58;;;;;;;44.28;5.15;;;;;;;;;;4996693;28;20034;-31
2021/12/17 15:59:24;;;;;;;30.88;4.10;;;;;;;;;;4996737;28;20030;-30
2021/12/17 16:01:51;;;;;;;30.50;5.75;;;;;;;;;;4996026;28;20469;-30
2021/12/17 16:04:17;;;;;;;26.00;7.28;;;;;;;;;;4996132;28;20056;-33
2021/12/17 16:06:43;;;;;;;32.60;4.90;;;;;;;;;;4996062;28;20390;-31
2021/12/17 16:09:28;;;;;;;33.30;4.45;;;;;;;;;;4996543;28;20022;-31
2021/12/17 16:22:55;;;;;;;32.53;5.03;;;;;;;;;;4995713;28;20128;-31
2021/12/17 16:25:22;;;;;;;36.13;3.97;;;;;;;;;;4995513;28;20026;-32
2021/12/17 16:27:49;;;;;;;25.10;5.38;;;;;;;;;;4995512;28;20476;-31
2021/12/17 16:30:15;;;;;;;31.25;4.80;;;;;;;;;;4995377;28;20118;-32
2021/12/17 16:32:42;;;;;;;38.15;4.40;;;;;;;;;;4995288;28;20041;-31
2021/12/17 16:35:08;;;;;;;47.67;5.80;;;;;;;;;;4995608;28;20069;-31
2021/12/17 16:37:35;;;;;;;33.95;6.88;;;;;;;;;;4996037;28;20161;-32
2021/12/17 16:40:04;;;;;;;41.03;4.30;;;;;;;;;;4995610;28;20060;-31
2021/12/17 16:42:31;;;;;;;41.17;3.75;;;;;;;;;;4994796;28;20208;-32
2021/12/17 16:47:24;;;;;;;42.08;6.40;;;;;;;;;;4995315;28;20033;-32
2021/12/17 16:49:50;;;;;;;31.70;5.50;;;;;;;;;;4995568;28;20027;-34
2021/12/17 16:52:17;;;;;;;30.65;5.25;;;;;;;;;;4995369;28;20033;-32
2021/12/17 16:54:43;;;;;;;45.88;6.38;;;;;;;;;;4995276;28;20030;-32
2021/12/17 16:57:09;;;;;;;38.33;4.53;;;;;;;;;;4995199;28;20404;-31
2021/12/17 16:59:35;;;;;;;42.53;8.18;;;;;;;;;;4995105;28;20105;-33
2021/12/17 17:02:02;;;;;;;36.80;4.70;;;;;;;;;;4995352;28;20064;-32
2021/12/17 17:04:28;;;;;;;30.95;4.18;;;;;;;;;;4994857;28;20046;-33
2021/12/17 17:06:54;;;;;;;42.22;5.43;;;;;;;;;;4995404;28;20132;-31
2021/12/17 17:09:20;;;;;;;27.60;4.65;;;;;;;;;;4995242;28;20023;-30
2021/12/17 17:11:49;;;;;;;28.85;6.97;;;;;;;;;;4995037;28;20018;-31
2021/12/17 17:14:15;;;;;;;29.38;4.20;;;;;;;;;;4994813;28;20027;-31
2021/12/17 17:16:42;;;;;;;26.52;3.97;;;;;;;;;;4994856;28;20030;-31
2021/12/17 17:19:08;;;;;;;31.42;5.65;;;;;;;;;;4995021;28;20373;-31
2021/12/17 17:21:35;;;;;;;25.85;5.20;;;;;;;;;;4994609;28;20091;-31
2021/12/17 17:24:02;;;;;;;35.58;6.05;;;;;;;;;;4994837;28;20365;-31
2021/12/17 17:26:31;;;;;;;28.45;4.53;;;;;;;;;;4977695;28;20350;-33
2021/12/17 17:28:57;;;;;;;40.92;4.78;;;;;;;;;;4995439;28;20030;-31
2021/12/17 17:31:24;;;;;;;32.33;5.47;;;;;;;;;;4994954;28;20034;-31
2021/12/17 17:33:50;;;;;;;41.83;4.18;;;;;;;;;;4977470;28;20026;-33
2021/12/17 17:36:17;;;;;;;36.35;6.57;;;;;;;;;;4994727;28;20075;-34
2021/12/17 17:38:44;;;;;;;58.40;5.75;;;;;;;;;;4994823;28;20062;-32
2021/12/17 17:41:10;;;;;;;36.65;4.65;;;;;;;;;;4994972;28;20061;-32
2021/12/17 17:43:36;;;;;;;35.83;5.85;;;;;;;;;;4994459;28;20042;-32
2021/12/17 17:46:02;;;;;;;38.80;4.95;;;;;;;;;;4994561;28;20057;-30
2021/12/17 17:48:28;;;;;;;34.03;4.88;;;;;;;;;;4994927;28;20022;-34
2021/12/17 17:50:55;;;;;;;36.00;5.07;;;;;;;;;;4977434;28;20476;-33
2021/12/17 17:53:21;;;;;;;40.05;5.40;;;;;;;;;;4994457;28;20082;-33
2021/12/17 17:55:47;;;;;;;23.05;4.35;;;;;;;;;;4998022;28;20026;-32
2021/12/17 17:58:14;;;;;;;43.67;7.82;;;;;;;;;;4998431;28;20049;-33